Time;durP1;ratioP1;P1;durP2;ratioP2;P2;SDS_P1;SDS_P2;PMS_P1;PMS_P2;Temp;Humidity;BMP_temperature;BMP_pressure;BME280_temperature;BME280_humidity;BME280_pressure;Samples;Min_cycle;Max_cycle;Signal;HPM_P1;HPM_P2
2023/09/23 00:00:27;;;;;;;11.73;7.63;;;;;;;;;;1044651;28;20044;-68
2023/09/23 00:01:18;;;;;;;13.68;8.07;;;;;;;;;;1045014;28;20052;-68
2023/09/23 00:01:49;;;;;;;13.25;7.78;;;;;;;;;;1044372;28;20059;-68
2023/09/23 00:02:21;;;;;;;10.57;7.80;;;;;;;;;;1045890;28;20044;-68
2023/09/23 00:02:51;;;;;;;9.57;7.72;;;;;;;;;;1046310;28;20040;-68
2023/09/23 00:03:23;;;;;;;11.13;7.60;;;;;;;;;;1046466;28;20078;-68
2023/09/23 00:03:54;;;;;;;14.13;8.00;;;;;;;;;;1045392;28;20389;-68
2023/09/23 00:04:24;;;;;;;10.98;7.72;;;;;;;;;;1046307;28;20400;-68
2023/09/23 00:04:55;;;;;;;15.80;7.70;;;;;;;;;;1045646;28;20049;-68
2023/09/23 00:05:26;;;;;;;11.38;7.32;;;;;;;;;;1045978;28;20127;-67
2023/09/23 00:05:56;;;;;;;13.18;8.02;;;;;;;;;;1045199;28;20071;-68
2023/09/23 00:06:27;;;;;;;12.95;7.72;;;;;;;;;;1046155;28;20435;-68
2023/09/23 00:06:58;;;;;;;15.32;7.60;;;;;;;;;;1045854;28;20488;-68
2023/09/23 00:07:30;;;;;;;14.10;8.18;;;;;;;;;;1045781;28;20539;-68
2023/09/23 00:08:01;;;;;;;14.68;7.75;;;;;;;;;;1044892;28;20048;-67
2023/09/23 00:08:32;;;;;;;12.95;7.88;;;;;;;;;;1047281;28;20052;-68
2023/09/23 00:09:04;;;;;;;12.63;7.50;;;;;;;;;;1044841;28;21822;-67
2023/09/23 00:09:36;;;;;;;13.32;7.97;;;;;;;;;;1042525;28;20161;-68
2023/09/23 00:10:08;;;;;;;11.20;7.50;;;;;;;;;;1040792;28;20061;-68
2023/09/23 00:10:39;;;;;;;10.73;7.63;;;;;;;;;;1041082;28;20416;-68
2023/09/23 00:11:10;;;;;;;15.75;8.40;;;;;;;;;;1041097;28;20824;-68
2023/09/23 00:11:40;;;;;;;12.77;7.50;;;;;;;;;;1041904;28;20409;-68
2023/09/23 00:12:12;;;;;;;14.85;8.20;;;;;;;;;;1040186;28;20060;-68
2023/09/23 00:12:43;;;;;;;13.40;7.70;;;;;;;;;;1041039;28;20049;-68
2023/09/23 00:13:14;;;;;;;11.35;7.80;;;;;;;;;;1041554;28;20045;-68
2023/09/23 00:13:44;;;;;;;11.07;7.65;;;;;;;;;;1042725;28;20056;-68
2023/09/23 00:14:15;;;;;;;8.68;7.70;;;;;;;;;;1042116;28;20088;-68
2023/09/23 00:14:45;;;;;;;13.32;7.88;;;;;;;;;;1046657;28;20076;-68
2023/09/23 00:15:16;;;;;;;16.80;7.88;;;;;;;;;;1044897;28;20093;-68
2023/09/23 00:15:47;;;;;;;9.60;7.20;;;;;;;;;;1044391;28;20789;-68
2023/09/23 00:16:17;;;;;;;12.13;7.43;;;;;;;;;;1045367;28;20396;-67
2023/09/23 00:16:48;;;;;;;10.70;7.25;;;;;;;;;;1044693;28;20053;-68
2023/09/23 00:17:18;;;;;;;15.05;7.22;;;;;;;;;;1044404;28;20048;-68
2023/09/23 00:17:49;;;;;;;11.43;6.72;;;;;;;;;;1044871;28;20139;-67
2023/09/23 00:18:19;;;;;;;8.43;6.72;;;;;;;;;;1045390;28;20049;-66
2023/09/23 00:18:51;;;;;;;18.52;6.78;;;;;;;;;;1043087;28;20052;-67
2023/09/23 00:19:22;;;;;;;12.93;7.00;;;;;;;;;;1043593;28;20048;-68
2023/09/23 00:19:53;;;;;;;9.32;6.65;;;;;;;;;;1045019;28;20045;-68
2023/09/23 00:20:23;;;;;;;9.55;6.95;;;;;;;;;;1045583;28;20052;-67
2023/09/23 00:20:54;;;;;;;10.75;6.97;;;;;;;;;;1045684;28;20415;-68
2023/09/23 00:21:25;;;;;;;10.18;7.38;;;;;;;;;;1046261;28;20163;-68
2023/09/23 00:21:55;;;;;;;10.60;7.05;;;;;;;;;;1045085;28;20538;-67
2023/09/23 00:22:26;;;;;;;11.00;7.25;;;;;;;;;;1045883;28;20110;-67
2023/09/23 00:22:57;;;;;;;10.10;7.10;;;;;;;;;;1046234;28;20059;-68
2023/09/23 00:23:27;;;;;;;12.73;7.13;;;;;;;;;;1046012;28;20048;-67
2023/09/23 00:24:00;;;;;;;10.55;6.65;;;;;;;;;;1046989;28;20075;-67
2023/09/23 00:24:31;;;;;;;8.57;7.15;;;;;;;;;;1045472;28;20056;-68
2023/09/23 00:25:01;;;;;;;12.10;6.82;;;;;;;;;;1045573;28;20076;-67
2023/09/23 00:25:33;;;;;;;13.55;7.32;;;;;;;;;;1046443;28;20059;-68
2023/09/23 00:26:03;;;;;;;11.70;7.05;;;;;;;;;;1045217;28;20512;-67
2023/09/23 00:26:35;;;;;;;9.30;6.45;;;;;;;;;;1045320;28;20524;-68
2023/09/23 00:27:07;;;;;;;10.68;6.80;;;;;;;;;;1044575;28;20519;-68
2023/09/23 00:27:39;;;;;;;8.45;6.68;;;;;;;;;;1045183;28;20071;-68
2023/09/23 00:28:11;;;;;;;11.82;7.22;;;;;;;;;;1045810;28;20094;-68
2023/09/23 00:28:46;;;;;;;13.85;8.35;;;;;;;;;;1045555;28;20045;-68
2023/09/23 00:29:17;;;;;;;12.02;7.40;;;;;;;;;;1046539;28;20449;-68
2023/09/23 00:29:49;;;;;;;12.35;7.35;;;;;;;;;;1043761;28;20106;-67
2023/09/23 00:30:22;;;;;;;16.40;6.82;;;;;;;;;;1045526;28;20056;-67
2023/09/23 00:30:53;;;;;;;11.70;7.30;;;;;;;;;;1043873;28;20056;-67
2023/09/23 00:31:24;;;;;;;14.82;7.40;;;;;;;;;;1046654;28;20048;-68
2023/09/23 00:31:54;;;;;;;11.95;7.70;;;;;;;;;;1045944;28;20044;-68
2023/09/23 00:32:25;;;;;;;10.07;7.53;;;;;;;;;;1044869;28;20045;-67
2023/09/23 00:32:56;;;;;;;9.75;7.00;;;;;;;;;;1044201;28;20412;-67
2023/09/23 00:33:26;;;;;;;11.82;7.32;;;;;;;;;;1045081;28;20059;-67
2023/09/23 00:33:57;;;;;;;12.27;7.45;;;;;;;;;;1044095;28;20064;-67
2023/09/23 00:34:29;;;;;;;11.70;7.43;;;;;;;;;;1047608;28;20131;-68
2023/09/23 00:34:59;;;;;;;14.55;7.75;;;;;;;;;;1046544;28;20575;-67
2023/09/23 00:35:30;;;;;;;11.18;7.05;;;;;;;;;;1044168;28;20472;-67
2023/09/23 00:36:00;;;;;;;13.73;7.75;;;;;;;;;;1044996;28;20052;-68
2023/09/23 00:36:31;;;;;;;11.30;6.70;;;;;;;;;;1046272;28;20072;-68
2023/09/23 00:37:02;;;;;;;14.52;7.63;;;;;;;;;;1046365;28;20041;-68
2023/09/23 00:37:33;;;;;;;14.77;7.15;;;;;;;;;;1045185;28;20049;-68
2023/09/23 00:38:04;;;;;;;13.70;7.53;;;;;;;;;;1045662;28;20393;-67
2023/09/23 00:38:35;;;;;;;13.27;7.78;;;;;;;;;;1046103;28;20133;-68
2023/09/23 00:39:06;;;;;;;11.10;7.65;;;;;;;;;;1044806;28;20072;-68
2023/09/23 00:39:38;;;;;;;10.20;7.70;;;;;;;;;;1044293;28;20053;-67
2023/09/23 00:40:18;;;;;;;11.52;7.32;;;;;;;;;;1045837;28;20079;-66
2023/09/23 00:40:48;;;;;;;12.30;7.85;;;;;;;;;;1044255;28;20045;-67
2023/09/23 00:41:19;;;;;;;11.23;8.10;;;;;;;;;;1045043;28;20043;-68
2023/09/23 00:41:49;;;;;;;10.63;7.43;;;;;;;;;;1045221;28;20052;-68
2023/09/23 00:42:21;;;;;;;12.13;7.60;;;;;;;;;;1045128;28;20063;-68
2023/09/23 00:42:51;;;;;;;9.77;7.70;;;;;;;;;;1044901;28;20078;-68
2023/09/23 00:43:23;;;;;;;12.82;8.02;;;;;;;;;;1045425;28;20409;-67
2023/09/23 00:43:55;;;;;;;11.82;7.28;;;;;;;;;;1045979;28;20056;-67
2023/09/23 00:44:25;;;;;;;12.07;8.15;;;;;;;;;;1045534;28;20048;-68
2023/09/23 00:44:56;;;;;;;13.73;7.70;;;;;;;;;;1046059;28;20132;-68
2023/09/23 00:45:29;;;;;;;10.52;7.95;;;;;;;;;;1045016;28;20053;-68
2023/09/23 00:46:00;;;;;;;11.90;8.00;;;;;;;;;;1044147;28;20053;-67
2023/09/23 00:46:31;;;;;;;14.55;8.10;;;;;;;;;;1045268;28;22044;-67
2023/09/23 00:47:02;;;;;;;12.38;7.78;;;;;;;;;;1045142;28;20070;-67
2023/09/23 00:47:33;;;;;;;13.60;8.13;;;;;;;;;;1044420;28;20045;-68
2023/09/23 00:48:08;;;;;;;13.02;8.20;;;;;;;;;;1046185;28;20055;-68
2023/09/23 00:48:43;;;;;;;8.93;7.50;;;;;;;;;;1046707;28;20056;-68
2023/09/23 00:49:13;;;;;;;11.38;7.65;;;;;;;;;;1044954;28;20052;-68
2023/09/23 00:49:44;;;;;;;12.43;7.57;;;;;;;;;;1045618;28;20048;-67
2023/09/23 00:50:18;;;;;;;14.20;7.63;;;;;;;;;;1046186;28;20036;-68
2023/09/23 00:50:52;;;;;;;10.90;7.57;;;;;;;;;;1045643;28;20052;-68
2023/09/23 00:51:22;;;;;;;14.45;7.97;;;;;;;;;;1045315;28;20058;-68
2023/09/23 00:51:53;;;;;;;13.77;7.60;;;;;;;;;;1045133;28;20060;-67
2023/09/23 00:52:23;;;;;;;12.73;8.18;;;;;;;;;;1045055;28;20488;-67
2023/09/23 00:52:55;;;;;;;13.93;8.32;;;;;;;;;;1044982;28;20044;-67
2023/09/23 00:53:26;;;;;;;14.20;7.88;;;;;;;;;;1045548;28;20048;-68
2023/09/23 00:53:58;;;;;;;15.27;8.48;;;;;;;;;;1045608;28;20093;-67
2023/09/23 00:54:31;;;;;;;15.68;8.40;;;;;;;;;;1046073;28;20079;-68
2023/09/23 00:55:01;;;;;;;14.90;7.80;;;;;;;;;;1046134;28;20408;-68
2023/09/23 00:55:39;;;;;;;10.60;7.68;;;;;;;;;;1045806;28;20487;-67
2023/09/23 00:56:11;;;;;;;11.35;8.15;;;;;;;;;;1044447;28;20049;-68
2023/09/23 00:56:42;;;;;;;12.15;8.35;;;;;;;;;;1046558;28;20131;-67
2023/09/23 00:57:14;;;;;;;13.63;7.82;;;;;;;;;;1044744;28;20059;-68
2023/09/23 00:57:47;;;;;;;12.60;8.32;;;;;;;;;;1046744;28;20064;-68
2023/09/23 00:58:21;;;;;;;14.82;8.18;;;;;;;;;;1046079;28;20412;-67
2023/09/23 00:58:52;;;;;;;13.05;8.63;;;;;;;;;;1046265;28;20040;-67
2023/09/23 00:59:22;;;;;;;12.48;8.15;;;;;;;;;;1045290;28;20060;-67
2023/09/23 00:59:53;;;;;;;14.32;8.27;;;;;;;;;;1045915;28;20048;-68
2023/09/23 01:00:25;;;;;;;14.85;8.07;;;;;;;;;;1044591;28;20126;-68
2023/09/23 01:00:56;;;;;;;13.40;8.23;;;;;;;;;;1046228;28;20052;-68
2023/09/23 01:01:27;;;;;;;16.67;8.10;;;;;;;;;;1044043;28;20156;-68
2023/09/23 01:01:57;;;;;;;11.35;8.52;;;;;;;;;;1046541;28;20416;-68
2023/09/23 01:02:28;;;;;;;13.25;8.88;;;;;;;;;;1043013;28;21504;-68
2023/09/23 01:02:59;;;;;;;11.18;7.82;;;;;;;;;;1046234;28;20491;-67
2023/09/23 01:03:30;;;;;;;11.18;8.18;;;;;;;;;;1045689;28;21943;-68
2023/09/23 01:04:01;;;;;;;12.82;8.38;;;;;;;;;;1046357;28;20392;-67
2023/09/23 01:04:34;;;;;;;14.32;8.68;;;;;;;;;;1044305;28;20786;-67
2023/09/23 01:05:05;;;;;;;9.45;8.45;;;;;;;;;;1044981;28;20417;-67
2023/09/23 01:05:36;;;;;;;13.02;7.95;;;;;;;;;;1045389;28;20438;-68
2023/09/23 01:06:19;;;;;;;13.30;8.60;;;;;;;;;;1045746;28;20487;-68
2023/09/23 01:06:50;;;;;;;12.63;7.72;;;;;;;;;;1044760;28;20044;-68
2023/09/23 01:07:20;;;;;;;13.60;8.90;;;;;;;;;;1045377;28;20056;-67
2023/09/23 01:07:51;;;;;;;11.10;8.63;;;;;;;;;;1046646;28;20048;-67
2023/09/23 01:08:29;;;;;;;14.63;8.48;;;;;;;;;;1041953;28;20138;-67
2023/09/23 01:09:06;;;;;;;16.73;8.70;;;;;;;;;;1040219;28;20049;-68
2023/09/23 01:09:37;;;;;;;14.43;8.43;;;;;;;;;;1041868;28;20049;-67
2023/09/23 01:10:08;;;;;;;14.07;8.07;;;;;;;;;;1040811;28;20088;-68
2023/09/23 01:10:39;;;;;;;15.98;9.00;;;;;;;;;;1042158;28;20060;-68
2023/09/23 01:11:10;;;;;;;10.23;8.02;;;;;;;;;;1042544;28;20052;-67
2023/09/23 01:11:41;;;;;;;14.25;8.80;;;;;;;;;;1045512;28;20052;-68
2023/09/23 01:12:11;;;;;;;13.40;8.30;;;;;;;;;;1044686;28;20539;-68
2023/09/23 01:12:43;;;;;;;13.18;8.85;;;;;;;;;;1041400;28;20061;-68
2023/09/23 01:13:19;;;;;;;12.68;8.73;;;;;;;;;;1040808;28;20049;-67
2023/09/23 01:13:52;;;;;;;13.90;8.75;;;;;;;;;;1039402;28;20049;-68
2023/09/23 01:14:22;;;;;;;18.27;8.23;;;;;;;;;;1043134;28;20151;-68
2023/09/23 01:14:58;;;;;;;15.75;8.43;;;;;;;;;;1046385;28;20557;-68
2023/09/23 01:15:31;;;;;;;15.63;8.30;;;;;;;;;;1045152;28;20075;-68
2023/09/23 01:16:06;;;;;;;13.90;8.15;;;;;;;;;;1045750;28;20098;-68
2023/09/23 01:16:37;;;;;;;14.77;9.02;;;;;;;;;;1046028;28;20055;-67
2023/09/23 01:17:11;;;;;;;15.77;8.95;;;;;;;;;;1046371;28;20048;-67
2023/09/23 01:17:43;;;;;;;15.80;8.45;;;;;;;;;;1046016;28;20044;-67
2023/09/23 01:18:14;;;;;;;12.18;8.80;;;;;;;;;;1046371;28;20045;-68
2023/09/23 01:18:45;;;;;;;14.40;8.48;;;;;;;;;;1045274;28;20045;-67
2023/09/23 01:19:15;;;;;;;11.60;8.60;;;;;;;;;;1045727;28;20075;-68
2023/09/23 01:19:46;;;;;;;16.63;8.73;;;;;;;;;;1046782;28;20743;-68
2023/09/23 01:20:17;;;;;;;13.10;8.18;;;;;;;;;;1045438;28;20458;-67
2023/09/23 01:20:55;;;;;;;13.43;7.53;;;;;;;;;;1045044;28;20049;-68
2023/09/23 01:21:26;;;;;;;13.35;8.30;;;;;;;;;;1044176;28;20044;-68
2023/09/23 01:21:56;;;;;;;15.20;8.50;;;;;;;;;;1045677;28;20139;-67
2023/09/23 01:22:27;;;;;;;13.07;8.70;;;;;;;;;;1044917;28;20052;-67
2023/09/23 01:22:58;;;;;;;14.50;8.50;;;;;;;;;;1046150;28;20040;-68
2023/09/23 01:23:29;;;;;;;13.60;8.30;;;;;;;;;;1045877;28;20044;-68
2023/09/23 01:24:00;;;;;;;13.95;8.68;;;;;;;;;;1046657;28;20529;-68
2023/09/23 01:24:32;;;;;;;13.30;8.60;;;;;;;;;;1043227;28;20053;-68
2023/09/23 01:25:04;;;;;;;13.75;8.18;;;;;;;;;;1045610;28;20086;-68
2023/09/23 01:25:36;;;;;;;12.48;7.93;;;;;;;;;;1046595;28;20734;-68
2023/09/23 01:26:11;;;;;;;14.43;8.30;;;;;;;;;;1045894;28;20488;-67
2023/09/23 01:26:43;;;;;;;12.73;8.05;;;;;;;;;;1045136;28;20147;-67
2023/09/23 01:27:13;;;;;;;15.48;8.32;;;;;;;;;;1044879;28;20059;-67
2023/09/23 01:27:44;;;;;;;13.00;8.13;;;;;;;;;;1045617;28;20076;-67
2023/09/23 01:28:15;;;;;;;12.43;8.35;;;;;;;;;;1046306;28;20943;-68
2023/09/23 01:28:48;;;;;;;13.02;8.15;;;;;;;;;;1047528;28;20052;-68
2023/09/23 01:29:22;;;;;;;13.90;9.20;;;;;;;;;;1045020;28;20790;-67
2023/09/23 01:29:53;;;;;;;12.73;8.32;;;;;;;;;;1045512;28;20504;-67
2023/09/23 01:30:24;;;;;;;12.20;8.10;;;;;;;;;;1045307;28;20052;-68
2023/09/23 01:30:54;;;;;;;14.55;8.65;;;;;;;;;;1045599;28;20044;-67
2023/09/23 01:31:29;;;;;;;14.43;8.27;;;;;;;;;;1045840;28;20926;-68
2023/09/23 01:32:02;;;;;;;14.13;8.40;;;;;;;;;;1045861;28;20135;-68
2023/09/23 01:32:42;;;;;;;14.50;8.73;;;;;;;;;;1044594;28;20053;-68
2023/09/23 01:33:13;;;;;;;12.55;8.32;;;;;;;;;;1044008;28;20114;-67
2023/09/23 01:33:44;;;;;;;13.48;9.10;;;;;;;;;;1046181;28;20076;-67
2023/09/23 01:34:15;;;;;;;11.07;8.05;;;;;;;;;;1045281;28;20118;-68
2023/09/23 01:34:45;;;;;;;12.63;8.60;;;;;;;;;;1046509;28;20052;-68
2023/09/23 01:35:17;;;;;;;13.23;8.43;;;;;;;;;;1045109;28;20102;-68
2023/09/23 01:35:48;;;;;;;13.93;8.50;;;;;;;;;;1043792;28;20049;-68
2023/09/23 01:36:19;;;;;;;13.80;8.57;;;;;;;;;;1043159;28;20051;-68
2023/09/23 01:36:50;;;;;;;13.75;8.35;;;;;;;;;;1045778;28;20511;-67
2023/09/23 01:37:21;;;;;;;17.15;9.00;;;;;;;;;;1044940;28;20477;-68
2023/09/23 01:37:51;;;;;;;13.88;9.00;;;;;;;;;;1044909;28;20102;-68
2023/09/23 01:38:22;;;;;;;12.05;8.98;;;;;;;;;;1045508;28;20056;-68
2023/09/23 01:38:52;;;;;;;13.20;8.98;;;;;;;;;;1045714;28;20382;-68
2023/09/23 01:39:23;;;;;;;12.90;9.27;;;;;;;;;;1043991;28;20056;-68
2023/09/23 01:39:53;;;;;;;14.73;9.35;;;;;;;;;;1042964;28;20143;-68
2023/09/23 01:40:25;;;;;;;10.73;8.50;;;;;;;;;;1046184;28;20060;-68
2023/09/23 01:40:56;;;;;;;14.93;8.90;;;;;;;;;;1046496;28;20109;-68
2023/09/23 01:41:26;;;;;;;16.77;9.63;;;;;;;;;;1045973;28;20102;-68
2023/09/23 01:41:57;;;;;;;10.32;8.75;;;;;;;;;;1045940;28;20500;-68
2023/09/23 01:42:30;;;;;;;11.77;9.02;;;;;;;;;;1045506;28;20051;-68
2023/09/23 01:43:04;;;;;;;15.43;9.05;;;;;;;;;;1044448;28;20094;-67
2023/09/23 01:43:34;;;;;;;11.23;8.65;;;;;;;;;;1044097;28;20078;-67
2023/09/23 01:44:06;;;;;;;16.60;8.73;;;;;;;;;;1046038;28;20049;-68
2023/09/23 01:44:37;;;;;;;16.33;9.13;;;;;;;;;;1044933;28;20048;-68
2023/09/23 01:45:10;;;;;;;16.10;9.27;;;;;;;;;;1043698;28;20095;-68
2023/09/23 01:45:40;;;;;;;15.35;9.13;;;;;;;;;;1045045;28;20049;-67
2023/09/23 01:46:11;;;;;;;15.80;8.90;;;;;;;;;;1045375;28;20048;-67
2023/09/23 01:46:42;;;;;;;16.45;9.57;;;;;;;;;;1045290;28;20057;-68
2023/09/23 01:47:16;;;;;;;15.40;8.68;;;;;;;;;;1045817;28;20091;-68
2023/09/23 01:47:47;;;;;;;15.77;8.93;;;;;;;;;;1044891;28;20098;-67
2023/09/23 01:48:21;;;;;;;14.75;9.60;;;;;;;;;;1044228;28;20052;-68
2023/09/23 01:48:51;;;;;;;14.45;9.05;;;;;;;;;;1044844;28;20067;-67
2023/09/23 01:49:22;;;;;;;12.13;9.18;;;;;;;;;;1044607;28;20436;-67
2023/09/23 01:49:53;;;;;;;15.15;10.02;;;;;;;;;;1043284;28;20056;-67
2023/09/23 01:50:24;;;;;;;11.45;9.13;;;;;;;;;;1043909;28;20435;-67
2023/09/23 01:50:58;;;;;;;11.85;9.45;;;;;;;;;;1045532;28;20807;-67
2023/09/23 01:51:29;;;;;;;15.60;9.60;;;;;;;;;;1044786;28;20106;-68
2023/09/23 01:51:59;;;;;;;17.35;10.32;;;;;;;;;;1044038;28;21065;-67
2023/09/23 01:52:29;;;;;;;17.95;9.90;;;;;;;;;;1043608;28;20083;-67
2023/09/23 01:53:00;;;;;;;13.77;9.90;;;;;;;;;;1042485;28;20045;-68
2023/09/23 01:53:32;;;;;;;14.40;9.80;;;;;;;;;;1043866;28;20052;-67
2023/09/23 01:54:03;;;;;;;15.52;9.75;;;;;;;;;;1045270;28;20052;-67
2023/09/23 01:54:33;;;;;;;13.68;9.35;;;;;;;;;;1044874;28;20079;-67
2023/09/23 01:55:05;;;;;;;15.82;9.57;;;;;;;;;;1041637;28;20044;-67
2023/09/23 01:55:36;;;;;;;16.33;9.23;;;;;;;;;;1043109;28;20477;-67
2023/09/23 01:56:09;;;;;;;13.98;9.48;;;;;;;;;;1043985;28;20161;-67
2023/09/23 01:56:39;;;;;;;19.75;10.07;;;;;;;;;;1041424;28;20386;-67
2023/09/23 01:57:16;;;;;;;14.77;9.35;;;;;;;;;;1039770;28;20836;-67
2023/09/23 01:57:49;;;;;;;11.43;8.85;;;;;;;;;;1040013;28;20838;-67
2023/09/23 01:58:22;;;;;;;13.90;9.48;;;;;;;;;;1043779;28;20051;-67
2023/09/23 01:58:52;;;;;;;14.35;9.30;;;;;;;;;;1045907;28;20052;-67
2023/09/23 01:59:23;;;;;;;15.25;10.23;;;;;;;;;;1042934;28;20044;-67
2023/09/23 01:59:53;;;;;;;12.05;8.60;;;;;;;;;;1046168;28;20575;-68
2023/09/23 02:00:28;;;;;;;15.52;9.75;;;;;;;;;;1043118;28;20131;-68
2023/09/23 02:00:59;;;;;;;14.55;9.32;;;;;;;;;;1045928;28;20044;-67
2023/09/23 02:01:30;;;;;;;15.57;9.70;;;;;;;;;;1043958;28;20049;-67
2023/09/23 02:02:04;;;;;;;17.15;9.68;;;;;;;;;;1045420;28;20140;-67
2023/09/23 02:02:35;;;;;;;17.70;10.68;;;;;;;;;;1045192;28;20521;-67
2023/09/23 02:03:05;;;;;;;15.30;10.30;;;;;;;;;;1045371;28;20463;-67
2023/09/23 02:03:36;;;;;;;13.57;9.95;;;;;;;;;;1043483;28;20059;-67
2023/09/23 02:04:08;;;;;;;12.77;9.98;;;;;;;;;;1043858;28;20574;-67
2023/09/23 02:04:40;;;;;;;14.93;9.48;;;;;;;;;;1045822;28;20064;-68
2023/09/23 02:05:10;;;;;;;13.88;10.10;;;;;;;;;;1044148;28;20044;-68
2023/09/23 02:05:41;;;;;;;17.90;11.32;;;;;;;;;;1045114;28;20131;-67
2023/09/23 02:06:12;;;;;;;12.18;9.98;;;;;;;;;;1044396;28;21930;-67
2023/09/23 02:06:43;;;;;;;13.35;10.55;;;;;;;;;;1043596;28;20044;-67
2023/09/23 02:07:14;;;;;;;16.95;10.68;;;;;;;;;;1042584;28;20048;-67
2023/09/23 02:07:47;;;;;;;19.92;9.57;;;;;;;;;;1043827;28;20049;-67
2023/09/23 02:08:17;;;;;;;16.10;10.40;;;;;;;;;;1044364;28;20071;-67
2023/09/23 02:08:48;;;;;;;17.17;10.40;;;;;;;;;;1044965;28;20052;-67
2023/09/23 02:09:18;;;;;;;14.65;9.93;;;;;;;;;;1044458;28;20048;-67
2023/09/23 02:09:49;;;;;;;17.33;11.15;;;;;;;;;;1045330;28;20060;-67
2023/09/23 02:10:24;;;;;;;14.77;10.70;;;;;;;;;;1044922;28;20502;-67
2023/09/23 02:10:55;;;;;;;15.10;10.05;;;;;;;;;;1046141;28;20844;-67
2023/09/23 02:11:26;;;;;;;17.50;10.13;;;;;;;;;;1045126;28;20076;-67
2023/09/23 02:11:56;;;;;;;15.75;10.55;;;;;;;;;;1046424;28;20048;-67
2023/09/23 02:12:27;;;;;;;19.13;11.27;;;;;;;;;;1043828;28;20055;-67
2023/09/23 02:12:58;;;;;;;17.85;11.05;;;;;;;;;;1046684;28;20131;-68
2023/09/23 02:13:29;;;;;;;16.98;10.48;;;;;;;;;;1044887;28;20048;-67
2023/09/23 02:14:01;;;;;;;16.98;9.70;;;;;;;;;;1045235;28;20070;-67
2023/09/23 02:14:31;;;;;;;14.10;10.20;;;;;;;;;;1042689;28;20056;-67
2023/09/23 02:15:04;;;;;;;15.15;10.50;;;;;;;;;;1045818;28;20072;-67
2023/09/23 02:15:34;;;;;;;14.77;9.63;;;;;;;;;;1044886;28;20063;-67
2023/09/23 02:16:05;;;;;;;15.73;10.60;;;;;;;;;;1045416;28;20044;-67
2023/09/23 02:16:35;;;;;;;19.35;10.70;;;;;;;;;;1045135;28;20106;-68
2023/09/23 02:17:06;;;;;;;18.40;10.65;;;;;;;;;;1044891;28;20420;-67
2023/09/23 02:17:36;;;;;;;17.50;10.30;;;;;;;;;;1045528;28;20123;-68
2023/09/23 02:18:07;;;;;;;14.82;9.75;;;;;;;;;;1045650;28;20064;-66
2023/09/23 02:18:38;;;;;;;18.17;10.73;;;;;;;;;;1044065;28;20094;-67
2023/09/23 02:19:10;;;;;;;16.58;9.65;;;;;;;;;;1045886;28;20048;-67
2023/09/23 02:19:40;;;;;;;18.90;11.10;;;;;;;;;;1044945;28;20056;-67
2023/09/23 02:20:49;;;;;;;15.52;10.27;;;;;;;;;;1043796;28;20053;-67
2023/09/23 02:21:20;;;;;;;13.63;9.73;;;;;;;;;;1043905;28;20056;-68
2023/09/23 02:21:50;;;;;;;14.63;10.48;;;;;;;;;;1044532;28;20059;-67
2023/09/23 02:22:22;;;;;;;15.15;11.23;;;;;;;;;;1045521;28;20385;-67
2023/09/23 02:22:54;;;;;;;18.98;10.98;;;;;;;;;;1046595;28;20404;-67
2023/09/23 02:23:24;;;;;;;17.95;10.45;;;;;;;;;;1042305;28;20052;-67
2023/09/23 02:23:55;;;;;;;20.83;11.07;;;;;;;;;;1045629;28;20044;-67
2023/09/23 02:24:27;;;;;;;18.25;11.02;;;;;;;;;;1043613;28;20052;-67
2023/09/23 02:24:57;;;;;;;15.23;10.50;;;;;;;;;;1046202;28;20051;-67
2023/09/23 02:25:28;;;;;;;16.10;10.75;;;;;;;;;;1044575;28;20059;-67
2023/09/23 02:26:01;;;;;;;18.67;11.23;;;;;;;;;;1040924;28;20448;-67
2023/09/23 02:26:32;;;;;;;16.17;10.30;;;;;;;;;;1039822;28;20131;-67
2023/09/23 02:27:03;;;;;;;15.57;10.95;;;;;;;;;;1040916;28;20058;-67
2023/09/23 02:27:34;;;;;;;19.25;10.90;;;;;;;;;;1041788;28;20036;-67
2023/09/23 02:28:05;;;;;;;14.50;10.23;;;;;;;;;;1040864;28;20068;-67
2023/09/23 02:28:36;;;;;;;17.13;10.63;;;;;;;;;;1040988;28;20048;-67
2023/09/23 02:29:07;;;;;;;19.13;11.25;;;;;;;;;;1041708;28;21503;-67
2023/09/23 02:29:40;;;;;;;15.63;10.05;;;;;;;;;;1041164;28;20463;-67
2023/09/23 02:30:12;;;;;;;18.02;10.98;;;;;;;;;;1040599;28;20056;-67
2023/09/23 02:30:42;;;;;;;15.93;9.65;;;;;;;;;;1045986;28;20036;-67
2023/09/23 02:31:13;;;;;;;18.95;11.00;;;;;;;;;;1045171;28;20408;-67
2023/09/23 02:31:47;;;;;;;15.30;9.68;;;;;;;;;;1045054;28;20567;-67
2023/09/23 02:32:17;;;;;;;14.27;10.13;;;;;;;;;;1043918;28;20408;-67
2023/09/23 02:32:48;;;;;;;17.90;10.43;;;;;;;;;;1046371;28;20377;-67
2023/09/23 02:33:20;;;;;;;17.05;10.60;;;;;;;;;;1045386;28;20106;-67
2023/09/23 02:33:51;;;;;;;17.48;10.05;;;;;;;;;;1045743;28;20514;-67
2023/09/23 02:34:21;;;;;;;18.35;9.68;;;;;;;;;;1043442;28;20044;-67
2023/09/23 02:34:52;;;;;;;18.20;10.93;;;;;;;;;;1044747;28;20163;-67
2023/09/23 02:35:25;;;;;;;16.40;11.30;;;;;;;;;;1043487;28;20049;-68
2023/09/23 02:35:57;;;;;;;20.40;10.95;;;;;;;;;;1046103;28;20390;-67
2023/09/23 02:36:28;;;;;;;17.83;10.82;;;;;;;;;;1044660;28;20056;-66
2023/09/23 02:36:58;;;;;;;20.33;10.45;;;;;;;;;;1044332;28;20072;-67
2023/09/23 02:37:29;;;;;;;18.13;10.63;;;;;;;;;;1045272;28;20090;-67
2023/09/23 02:38:00;;;;;;;14.13;10.35;;;;;;;;;;1045470;28;20070;-67
2023/09/23 02:38:31;;;;;;;17.33;10.50;;;;;;;;;;1046590;28;20059;-67
2023/09/23 02:39:15;;;;;;;16.48;10.05;;;;;;;;;;1037942;28;20064;-67
2023/09/23 02:39:45;;;;;;;19.52;10.07;;;;;;;;;;1040887;28;20188;-67
2023/09/23 02:40:17;;;;;;;14.45;10.27;;;;;;;;;;1041302;28;20850;-67
2023/09/23 02:40:50;;;;;;;16.65;10.60;;;;;;;;;;1041105;28;20049;-67
2023/09/23 02:41:20;;;;;;;20.33;10.98;;;;;;;;;;1041986;28;20048;-67
2023/09/23 02:41:52;;;;;;;23.63;10.98;;;;;;;;;;1044303;28;20041;-67
2023/09/23 02:42:23;;;;;;;18.25;11.02;;;;;;;;;;1044091;27;20171;-67
2023/09/23 02:42:57;;;;;;;18.58;10.82;;;;;;;;;;1046737;28;20071;-67
2023/09/23 02:43:28;;;;;;;17.40;9.77;;;;;;;;;;1044100;27;20102;-67
2023/09/23 02:43:58;;;;;;;24.70;12.00;;;;;;;;;;1046555;28;20048;-67
2023/09/23 02:44:30;;;;;;;17.58;10.55;;;;;;;;;;1044227;28;20071;-67
2023/09/23 02:45:02;;;;;;;16.67;9.88;;;;;;;;;;1043396;28;20444;-67
2023/09/23 02:45:33;;;;;;;17.98;11.18;;;;;;;;;;1044137;28;20458;-67
2023/09/23 02:46:06;;;;;;;19.00;11.02;;;;;;;;;;1044622;28;20622;-67
2023/09/23 02:46:39;;;;;;;19.95;10.32;;;;;;;;;;1045645;28;20048;-67
2023/09/23 02:47:10;;;;;;;23.02;11.00;;;;;;;;;;1046138;28;20052;-67
2023/09/23 02:47:43;;;;;;;14.45;11.10;;;;;;;;;;1045553;28;20044;-67
2023/09/23 02:48:14;;;;;;;20.92;10.88;;;;;;;;;;1045201;28;20048;-67
2023/09/23 02:48:46;;;;;;;18.80;11.18;;;;;;;;;;1046354;28;20044;-67
2023/09/23 02:49:17;;;;;;;17.08;11.13;;;;;;;;;;1045262;28;20048;-67
2023/09/23 02:49:47;;;;;;;18.98;10.73;;;;;;;;;;1046273;28;20049;-67
2023/09/23 02:50:18;;;;;;;19.13;11.20;;;;;;;;;;1043475;28;20079;-67
2023/09/23 02:50:48;;;;;;;16.52;11.05;;;;;;;;;;1046481;28;20802;-67
2023/09/23 02:51:19;;;;;;;16.63;10.35;;;;;;;;;;1044434;28;20465;-67
2023/09/23 02:51:49;;;;;;;18.67;10.32;;;;;;;;;;1045278;28;20079;-67
2023/09/23 02:52:20;;;;;;;18.60;10.55;;;;;;;;;;1045210;28;20188;-67
2023/09/23 02:52:52;;;;;;;16.65;10.88;;;;;;;;;;1045635;28;20044;-67
2023/09/23 02:53:23;;;;;;;16.85;11.45;;;;;;;;;;1044144;28;20052;-67
2023/09/23 02:53:53;;;;;;;16.98;11.15;;;;;;;;;;1045390;28;20135;-67
2023/09/23 02:54:23;;;;;;;18.63;11.32;;;;;;;;;;1043816;28;20044;-67
2023/09/23 02:54:54;;;;;;;16.33;11.18;;;;;;;;;;1046419;28;20044;-67
2023/09/23 02:55:24;;;;;;;14.40;11.30;;;;;;;;;;1044449;28;20052;-67
2023/09/23 02:56:05;;;;;;;15.95;10.30;;;;;;;;;;1046463;28;20137;-67
2023/09/23 02:56:36;;;;;;;17.75;10.63;;;;;;;;;;1044126;28;20064;-67
2023/09/23 02:57:12;;;;;;;19.30;10.65;;;;;;;;;;1045999;28;20075;-67
2023/09/23 02:57:48;;;;;;;16.80;11.13;;;;;;;;;;1045729;28;20050;-67
2023/09/23 02:58:21;;;;;;;18.23;10.80;;;;;;;;;;1044397;28;20409;-67
2023/09/23 02:58:52;;;;;;;19.15;11.57;;;;;;;;;;1045419;28;20051;-67
2023/09/23 02:59:26;;;;;;;20.05;10.95;;;;;;;;;;1044893;28;20052;-67
2023/09/23 02:59:58;;;;;;;23.58;11.13;;;;;;;;;;1045067;28;20059;-67
2023/09/23 03:00:33;;;;;;;20.10;9.40;;;;;;;;;;1044145;28;20389;-67
2023/09/23 03:01:05;;;;;;;17.27;10.02;;;;;;;;;;1044689;28;20511;-67
2023/09/23 03:01:35;;;;;;;16.10;10.63;;;;;;;;;;1046427;28;20484;-67
2023/09/23 03:02:07;;;;;;;19.55;10.25;;;;;;;;;;1045002;28;20445;-67
2023/09/23 03:02:38;;;;;;;20.83;10.52;;;;;;;;;;1046577;28;20582;-67
2023/09/23 03:03:16;;;;;;;18.15;10.65;;;;;;;;;;1044851;28;20048;-68
2023/09/23 03:03:47;;;;;;;18.33;10.50;;;;;;;;;;1046629;28;20048;-66
2023/09/23 03:04:23;;;;;;;17.17;10.63;;;;;;;;;;1044589;28;20049;-68
2023/09/23 03:04:58;;;;;;;17.77;10.40;;;;;;;;;;1045084;28;20053;-68
2023/09/23 03:05:29;;;;;;;18.60;10.60;;;;;;;;;;1044331;28;20134;-66
2023/09/23 03:06:03;;;;;;;14.80;10.63;;;;;;;;;;1046434;28;20037;-67
2023/09/23 03:06:38;;;;;;;15.98;10.32;;;;;;;;;;1043748;28;20409;-67
2023/09/23 03:07:10;;;;;;;17.65;10.10;;;;;;;;;;1043731;28;20539;-67